sensor_id;sensor_type;location;lat;lon;timestamp;temperature;humidity
45765;DHT22;31474;45.332;10.230;2023-02-15T00:00:54;5.40;99.90
45765;DHT22;31474;45.332;10.230;2023-02-15T00:03:29;5.50;99.90
45765;DHT22;31474;45.332;10.230;2023-02-15T00:05:57;5.50;99.90
45765;DHT22;31474;45.332;10.230;2023-02-15T00:08:23;5.50;99.90
45765;DHT22;31474;45.332;10.230;2023-02-15T00:10:48;5.50;99.90
45765;DHT22;31474;45.332;10.230;2023-02-15T00:13:14;5.50;99.90
45765;DHT22;31474;45.332;10.230;2023-02-15T00:15:40;5.60;99.90
45765;DHT22;31474;45.332;10.230;2023-02-15T00:18:05;5.60;99.90
45765;DHT22;31474;45.332;10.230;2023-02-15T00:20:31;5.70;99.90
45765;DHT22;31474;45.332;10.230;2023-02-15T00:22:57;5.70;99.90
45765;DHT22;31474;45.332;10.230;2023-02-15T00:25:22;5.60;99.90
45765;DHT22;31474;45.332;10.230;2023-02-15T00:27:48;5.60;99.90
45765;DHT22;31474;45.332;10.230;2023-02-15T00:30:14;5.50;99.90
45765;DHT22;31474;45.332;10.230;2023-02-15T00:32:39;5.40;99.90
45765;DHT22;31474;45.332;10.230;2023-02-15T00:35:05;5.40;99.90
45765;DHT22;31474;45.332;10.230;2023-02-15T00:37:32;5.40;99.90
45765;DHT22;31474;45.332;10.230;2023-02-15T00:39:58;5.40;99.90
45765;DHT22;31474;45.332;10.230;2023-02-15T00:42:23;5.40;99.90
45765;DHT22;31474;45.332;10.230;2023-02-15T00:44:49;5.40;99.90
45765;DHT22;31474;45.332;10.230;2023-02-15T00:47:15;5.40;99.90
45765;DHT22;31474;45.332;10.230;2023-02-15T00:49:40;5.30;99.90
45765;DHT22;31474;45.332;10.230;2023-02-15T00:52:06;5.30;99.90
45765;DHT22;31474;45.332;10.230;2023-02-15T00:54:31;5.30;99.90
45765;DHT22;31474;45.332;10.230;2023-02-15T00:56:57;5.30;99.90
45765;DHT22;31474;45.332;10.230;2023-02-15T00:59:23;5.20;99.90
45765;DHT22;31474;45.332;10.230;2023-02-15T01:01:48;5.20;99.90
45765;DHT22;31474;45.332;10.230;2023-02-15T01:04:14;5.20;99.90
45765;DHT22;31474;45.332;10.230;2023-02-15T01:06:40;5.20;99.90
45765;DHT22;31474;45.332;10.230;2023-02-15T01:09:05;5.20;99.90
45765;DHT22;31474;45.332;10.230;2023-02-15T01:11:31;5.20;99.90
45765;DHT22;31474;45.332;10.230;2023-02-15T01:13:57;5.20;99.90
45765;DHT22;31474;45.332;10.230;2023-02-15T01:16:25;5.10;99.90
45765;DHT22;31474;45.332;10.230;2023-02-15T01:18:51;5.10;99.90
45765;DHT22;31474;45.332;10.230;2023-02-15T01:21:20;4.90;99.90
45765;DHT22;31474;45.332;10.230;2023-02-15T01:23:46;4.90;99.90
45765;DHT22;31474;45.332;10.230;2023-02-15T01:26:12;4.80;99.90
45765;DHT22;31474;45.332;10.230;2023-02-15T01:28:38;4.70;99.90
45765;DHT22;31474;45.332;10.230;2023-02-15T01:31:08;4.80;99.90
45765;DHT22;31474;45.332;10.230;2023-02-15T01:33:35;4.70;99.90
45765;DHT22;31474;45.332;10.230;2023-02-15T01:36:01;4.80;99.90
45765;DHT22;31474;45.332;10.230;2023-02-15T01:38:27;4.80;99.90
45765;DHT22;31474;45.332;10.230;2023-02-15T01:40:53;4.90;99.90
45765;DHT22;31474;45.332;10.230;2023-02-15T01:43:41;4.90;99.90
45765;DHT22;31474;45.332;10.230;2023-02-15T01:46:07;4.80;99.90
45765;DHT22;31474;45.332;10.230;2023-02-15T01:48:33;4.80;99.90
45765;DHT22;31474;45.332;10.230;2023-02-15T01:51:01;4.80;99.90
45765;DHT22;31474;45.332;10.230;2023-02-15T01:53:34;4.80;99.90
45765;DHT22;31474;45.332;10.230;2023-02-15T01:56:06;4.80;99.90
45765;DHT22;31474;45.332;10.230;2023-02-15T01:58:35;4.80;99.90
45765;DHT22;31474;45.332;10.230;2023-02-15T02:01:02;4.80;99.90
45765;DHT22;31474;45.332;10.230;2023-02-15T02:03:57;4.80;99.90
45765;DHT22;31474;45.332;10.230;2023-02-15T02:06:25;4.80;99.90
45765;DHT22;31474;45.332;10.230;2023-02-15T02:08:52;4.80;99.90
45765;DHT22;31474;45.332;10.230;2023-02-15T02:11:18;4.80;99.90
45765;DHT22;31474;45.332;10.230;2023-02-15T02:13:44;4.80;99.90
45765;DHT22;31474;45.332;10.230;2023-02-15T02:27:26;4.70;99.90
45765;DHT22;31474;45.332;10.230;2023-02-15T02:30:19;4.70;99.90
45765;DHT22;31474;45.332;10.230;2023-02-15T02:35:53;4.60;99.90
45765;DHT22;31474;45.332;10.230;2023-02-15T02:45:58;4.50;99.90
45765;DHT22;31474;45.332;10.230;2023-02-15T02:48:29;4.50;99.90
45765;DHT22;31474;45.332;10.230;2023-02-15T02:50:56;4.50;99.90
45765;DHT22;31474;45.332;10.230;2023-02-15T02:53:21;4.40;99.90
45765;DHT22;31474;45.332;10.230;2023-02-15T02:55:51;4.50;99.90
45765;DHT22;31474;45.332;10.230;2023-02-15T03:01:04;4.50;99.90
45765;DHT22;31474;45.332;10.230;2023-02-15T03:03:41;4.40;99.90
45765;DHT22;31474;45.332;10.230;2023-02-15T03:06:13;4.50;99.90
45765;DHT22;31474;45.332;10.230;2023-02-15T03:08:51;4.50;99.90
45765;DHT22;31474;45.332;10.230;2023-02-15T03:11:20;4.40;99.90
45765;DHT22;31474;45.332;10.230;2023-02-15T03:13:47;4.40;99.90
45765;DHT22;31474;45.332;10.230;2023-02-15T03:16:16;4.40;99.90
45765;DHT22;31474;45.332;10.230;2023-02-15T03:19:13;4.40;99.90
45765;DHT22;31474;45.332;10.230;2023-02-15T03:21:49;4.40;99.90
45765;DHT22;31474;45.332;10.230;2023-02-15T03:24:26;4.30;99.90
45765;DHT22;31474;45.332;10.230;2023-02-15T03:26:54;4.30;99.90
45765;DHT22;31474;45.332;10.230;2023-02-15T03:29:23;4.20;99.90
45765;DHT22;31474;45.332;10.230;2023-02-15T03:31:55;4.20;99.90
45765;DHT22;31474;45.332;10.230;2023-02-15T03:34:21;4.20;99.90
45765;DHT22;31474;45.332;10.230;2023-02-15T03:37:13;4.20;99.90
45765;DHT22;31474;45.332;10.230;2023-02-15T03:39:47;4.20;99.90
45765;DHT22;31474;45.332;10.230;2023-02-15T03:42:25;4.30;99.90
45765;DHT22;31474;45.332;10.230;2023-02-15T03:45:11;4.30;99.90
45765;DHT22;31474;45.332;10.230;2023-02-15T03:47:42;4.30;99.90
45765;DHT22;31474;45.332;10.230;2023-02-15T03:50:17;4.20;99.90
45765;DHT22;31474;45.332;10.230;2023-02-15T03:53:05;4.20;99.90
45765;DHT22;31474;45.332;10.230;2023-02-15T03:55:32;4.20;99.90
45765;DHT22;31474;45.332;10.230;2023-02-15T03:57:58;4.20;99.90
45765;DHT22;31474;45.332;10.230;2023-02-15T04:01:00;4.20;99.90
45765;DHT22;31474;45.332;10.230;2023-02-15T04:04:01;4.20;99.90
45765;DHT22;31474;45.332;10.230;2023-02-15T04:06:27;4.20;99.90
45765;DHT22;31474;45.332;10.230;2023-02-15T04:08:53;4.20;99.90
45765;DHT22;31474;45.332;10.230;2023-02-15T04:11:37;4.20;99.90
45765;DHT22;31474;45.332;10.230;2023-02-15T04:14:03;4.20;99.90
45765;DHT22;31474;45.332;10.230;2023-02-15T04:16:48;4.10;99.90
45765;DHT22;31474;45.332;10.230;2023-02-15T04:19:15;4.10;99.90
45765;DHT22;31474;45.332;10.230;2023-02-15T04:21:59;4.10;99.90
45765;DHT22;31474;45.332;10.230;2023-02-15T04:24:43;4.10;99.90
45765;DHT22;31474;45.332;10.230;2023-02-15T04:27:27;4.10;99.90
45765;DHT22;31474;45.332;10.230;2023-02-15T04:29:53;4.10;99.90
45765;DHT22;31474;45.332;10.230;2023-02-15T04:32:18;4.10;99.90
45765;DHT22;31474;45.332;10.230;2023-02-15T04:34:44;4.00;99.90
45765;DHT22;31474;45.332;10.230;2023-02-15T04:37:09;4.00;99.90
45765;DHT22;31474;45.332;10.230;2023-02-15T04:39:35;4.00;99.90
45765;DHT22;31474;45.332;10.230;2023-02-15T04:42:01;4.00;99.90
45765;DHT22;31474;45.332;10.230;2023-02-15T04:44:27;4.00;99.90
45765;DHT22;31474;45.332;10.230;2023-02-15T04:46:52;4.00;99.90
45765;DHT22;31474;45.332;10.230;2023-02-15T04:49:18;4.00;99.90
45765;DHT22;31474;45.332;10.230;2023-02-15T04:51:43;3.90;99.90
45765;DHT22;31474;45.332;10.230;2023-02-15T04:54:09;4.00;99.90
45765;DHT22;31474;45.332;10.230;2023-02-15T04:56:35;4.00;99.90
45765;DHT22;31474;45.332;10.230;2023-02-15T04:59:03;4.00;99.90
45765;DHT22;31474;45.332;10.230;2023-02-15T05:01:28;3.90;99.90
45765;DHT22;31474;45.332;10.230;2023-02-15T05:03:54;3.90;99.90
45765;DHT22;31474;45.332;10.230;2023-02-15T05:06:20;3.90;99.90
45765;DHT22;31474;45.332;10.230;2023-02-15T05:08:46;3.80;99.90
45765;DHT22;31474;45.332;10.230;2023-02-15T05:11:11;3.80;99.90
45765;DHT22;31474;45.332;10.230;2023-02-15T05:13:37;3.80;99.90
45765;DHT22;31474;45.332;10.230;2023-02-15T05:16:03;3.80;99.90
45765;DHT22;31474;45.332;10.230;2023-02-15T05:18:28;3.80;99.90
45765;DHT22;31474;45.332;10.230;2023-02-15T05:20:54;3.80;99.90
45765;DHT22;31474;45.332;10.230;2023-02-15T05:23:20;3.80;99.90
45765;DHT22;31474;45.332;10.230;2023-02-15T05:25:49;3.70;99.90
45765;DHT22;31474;45.332;10.230;2023-02-15T05:28:35;3.70;99.90
45765;DHT22;31474;45.332;10.230;2023-02-15T05:31:12;3.70;99.90
45765;DHT22;31474;45.332;10.230;2023-02-15T05:33:39;3.70;99.90
45765;DHT22;31474;45.332;10.230;2023-02-15T05:36:05;3.60;99.90
45765;DHT22;31474;45.332;10.230;2023-02-15T05:38:31;3.60;99.90
45765;DHT22;31474;45.332;10.230;2023-02-15T05:40:57;3.70;99.90
45765;DHT22;31474;45.332;10.230;2023-02-15T05:43:23;3.70;99.90
45765;DHT22;31474;45.332;10.230;2023-02-15T05:45:53;3.70;99.90
45765;DHT22;31474;45.332;10.230;2023-02-15T05:48:21;3.70;99.90
45765;DHT22;31474;45.332;10.230;2023-02-15T05:50:55;3.70;99.90
45765;DHT22;31474;45.332;10.230;2023-02-15T05:53:21;3.70;99.90
45765;DHT22;31474;45.332;10.230;2023-02-15T05:55:47;3.60;99.90
45765;DHT22;31474;45.332;10.230;2023-02-15T05:58:12;3.70;99.90
45765;DHT22;31474;45.332;10.230;2023-02-15T06:00:38;3.70;99.90
45765;DHT22;31474;45.332;10.230;2023-02-15T06:03:04;3.70;99.90
45765;DHT22;31474;45.332;10.230;2023-02-15T06:05:29;3.60;99.90
45765;DHT22;31474;45.332;10.230;2023-02-15T06:07:55;3.60;99.90
45765;DHT22;31474;45.332;10.230;2023-02-15T06:10:21;3.60;99.90
45765;DHT22;31474;45.332;10.230;2023-02-15T06:12:46;3.60;99.90
45765;DHT22;31474;45.332;10.230;2023-02-15T06:15:12;3.60;99.90
45765;DHT22;31474;45.332;10.230;2023-02-15T06:17:41;3.60;99.90
45765;DHT22;31474;45.332;10.230;2023-02-15T06:20:08;3.60;99.90
45765;DHT22;31474;45.332;10.230;2023-02-15T06:22:33;3.50;99.90
45765;DHT22;31474;45.332;10.230;2023-02-15T06:24:59;3.60;99.90
45765;DHT22;31474;45.332;10.230;2023-02-15T06:27:25;3.60;99.90
45765;DHT22;31474;45.332;10.230;2023-02-15T06:29:50;3.50;99.90
45765;DHT22;31474;45.332;10.230;2023-02-15T06:32:16;3.50;99.90
45765;DHT22;31474;45.332;10.230;2023-02-15T06:34:42;3.50;99.90
45765;DHT22;31474;45.332;10.230;2023-02-15T06:37:07;3.50;99.90
45765;DHT22;31474;45.332;10.230;2023-02-15T06:39:34;3.50;99.90
45765;DHT22;31474;45.332;10.230;2023-02-15T06:41:59;3.50;99.90
45765;DHT22;31474;45.332;10.230;2023-02-15T06:44:25;3.60;99.90
45765;DHT22;31474;45.332;10.230;2023-02-15T06:46:50;3.70;99.90
45765;DHT22;31474;45.332;10.230;2023-02-15T06:49:16;3.70;99.90
45765;DHT22;31474;45.332;10.230;2023-02-15T06:51:42;3.70;99.90
45765;DHT22;31474;45.332;10.230;2023-02-15T06:54:07;3.70;99.90
45765;DHT22;31474;45.332;10.230;2023-02-15T06:56:33;3.80;99.90
45765;DHT22;31474;45.332;10.230;2023-02-15T06:58:58;3.80;99.90
45765;DHT22;31474;45.332;10.230;2023-02-15T07:01:24;3.90;99.90
45765;DHT22;31474;45.332;10.230;2023-02-15T07:03:50;4.00;99.90
45765;DHT22;31474;45.332;10.230;2023-02-15T07:06:15;4.00;99.90
45765;DHT22;31474;45.332;10.230;2023-02-15T07:08:41;4.10;99.90
45765;DHT22;31474;45.332;10.230;2023-02-15T07:11:07;4.20;99.90
45765;DHT22;31474;45.332;10.230;2023-02-15T07:13:51;4.20;99.90
45765;DHT22;31474;45.332;10.230;2023-02-15T07:16:19;4.30;99.90
45765;DHT22;31474;45.332;10.230;2023-02-15T07:18:45;4.40;99.90
45765;DHT22;31474;45.332;10.230;2023-02-15T07:21:11;4.50;99.90
45765;DHT22;31474;45.332;10.230;2023-02-15T07:23:38;4.70;99.90
45765;DHT22;31474;45.332;10.230;2023-02-15T07:26:05;4.80;99.90
45765;DHT22;31474;45.332;10.230;2023-02-15T07:28:32;4.90;99.90
45765;DHT22;31474;45.332;10.230;2023-02-15T07:30:58;5.00;99.90
45765;DHT22;31474;45.332;10.230;2023-02-15T07:33:24;5.20;99.90
45765;DHT22;31474;45.332;10.230;2023-02-15T07:35:51;5.30;99.90
45765;DHT22;31474;45.332;10.230;2023-02-15T07:38:18;5.50;99.90
45765;DHT22;31474;45.332;10.230;2023-02-15T07:40:44;5.60;99.90
45765;DHT22;31474;45.332;10.230;2023-02-15T07:43:11;5.70;99.90
45765;DHT22;31474;45.332;10.230;2023-02-15T07:45:37;5.80;99.90
45765;DHT22;31474;45.332;10.230;2023-02-15T07:48:04;5.90;99.90
45765;DHT22;31474;45.332;10.230;2023-02-15T07:50:30;6.10;99.90
45765;DHT22;31474;45.332;10.230;2023-02-15T07:52:57;6.30;99.90
45765;DHT22;31474;45.332;10.230;2023-02-15T07:55:23;6.30;99.90
45765;DHT22;31474;45.332;10.230;2023-02-15T07:57:50;6.20;99.90
45765;DHT22;31474;45.332;10.230;2023-02-15T08:00:17;6.30;99.90
45765;DHT22;31474;45.332;10.230;2023-02-15T08:02:50;6.50;99.90
45765;DHT22;31474;45.332;10.230;2023-02-15T08:05:36;6.70;99.90
45765;DHT22;31474;45.332;10.230;2023-02-15T08:08:02;6.90;99.90
45765;DHT22;31474;45.332;10.230;2023-02-15T08:10:27;7.00;99.90
45765;DHT22;31474;45.332;10.230;2023-02-15T08:13:22;7.20;99.90
45765;DHT22;31474;45.332;10.230;2023-02-15T08:15:50;7.30;99.90
45765;DHT22;31474;45.332;10.230;2023-02-15T08:18:16;7.50;99.90
45765;DHT22;31474;45.332;10.230;2023-02-15T08:20:42;7.70;99.90
45765;DHT22;31474;45.332;10.230;2023-02-15T08:23:08;7.80;99.90
45765;DHT22;31474;45.332;10.230;2023-02-15T08:25:33;7.90;99.90
45765;DHT22;31474;45.332;10.230;2023-02-15T08:27:59;7.90;99.90
45765;DHT22;31474;45.332;10.230;2023-02-15T08:30:25;8.00;99.90
45765;DHT22;31474;45.332;10.230;2023-02-15T08:32:50;8.10;99.90
45765;DHT22;31474;45.332;10.230;2023-02-15T08:35:16;8.40;99.90
45765;DHT22;31474;45.332;10.230;2023-02-15T08:37:42;8.50;99.90
45765;DHT22;31474;45.332;10.230;2023-02-15T08:40:08;8.70;99.90
45765;DHT22;31474;45.332;10.230;2023-02-15T08:42:34;8.80;99.90
45765;DHT22;31474;45.332;10.230;2023-02-15T08:44:59;9.00;99.90
45765;DHT22;31474;45.332;10.230;2023-02-15T08:47:25;9.20;99.90
45765;DHT22;31474;45.332;10.230;2023-02-15T08:49:51;9.40;99.90
45765;DHT22;31474;45.332;10.230;2023-02-15T08:52:18;9.50;99.90
45765;DHT22;31474;45.332;10.230;2023-02-15T08:54:43;9.60;99.90
45765;DHT22;31474;45.332;10.230;2023-02-15T08:57:09;9.60;99.90
45765;DHT22;31474;45.332;10.230;2023-02-15T08:59:35;9.70;99.90
45765;DHT22;31474;45.332;10.230;2023-02-15T09:02:01;9.70;99.90
45765;DHT22;31474;45.332;10.230;2023-02-15T09:04:28;9.80;99.90
45765;DHT22;31474;45.332;10.230;2023-02-15T09:06:53;9.70;99.90
45765;DHT22;31474;45.332;10.230;2023-02-15T09:09:21;9.90;99.90
45765;DHT22;31474;45.332;10.230;2023-02-15T09:11:49;10.00;99.90
45765;DHT22;31474;45.332;10.230;2023-02-15T09:14:17;10.00;99.90
45765;DHT22;31474;45.332;10.230;2023-02-15T09:16:46;10.20;99.90
45765;DHT22;31474;45.332;10.230;2023-02-15T09:19:15;10.50;99.90
45765;DHT22;31474;45.332;10.230;2023-02-15T09:21:41;10.60;99.90
45765;DHT22;31474;45.332;10.230;2023-02-15T09:24:09;10.80;99.90
45765;DHT22;31474;45.332;10.230;2023-02-15T09:26:37;10.90;99.90
45765;DHT22;31474;45.332;10.230;2023-02-15T09:29:04;11.10;99.90
45765;DHT22;31474;45.332;10.230;2023-02-15T09:31:33;11.30;99.90
45765;DHT22;31474;45.332;10.230;2023-02-15T09:34:00;11.50;99.90
45765;DHT22;31474;45.332;10.230;2023-02-15T09:36:32;11.70;99.90
45765;DHT22;31474;45.332;10.230;2023-02-15T09:39:13;11.80;99.90
45765;DHT22;31474;45.332;10.230;2023-02-15T10:00:56;12.60;99.90
45765;DHT22;31474;45.332;10.230;2023-02-15T10:06:46;12.90;99.90
45765;DHT22;31474;45.332;10.230;2023-02-15T10:20:02;13.30;97.90
45765;DHT22;31474;45.332;10.230;2023-02-15T10:27:41;13.40;98.80
45765;DHT22;31474;45.332;10.230;2023-02-15T10:30:12;13.60;99.30
45765;DHT22;31474;45.332;10.230;2023-02-15T10:33:02;13.70;98.80
45765;DHT22;31474;45.332;10.230;2023-02-15T10:35:48;13.90;98.90
45765;DHT22;31474;45.332;10.230;2023-02-15T10:49:15;14.10;97.30
45765;DHT22;31474;45.332;10.230;2023-02-15T10:52:14;14.20;97.90
45765;DHT22;31474;45.332;10.230;2023-02-15T10:54:53;14.20;98.10
45765;DHT22;31474;45.332;10.230;2023-02-15T11:00:14;14.40;98.40
45765;DHT22;31474;45.332;10.230;2023-02-15T11:02:52;14.40;98.70
45765;DHT22;31474;45.332;10.230;2023-02-15T11:07:51;14.60;98.60
45765;DHT22;31474;45.332;10.230;2023-02-15T11:12:57;14.70;98.30
45765;DHT22;31474;45.332;10.230;2023-02-15T11:15:35;14.80;98.60
45765;DHT22;31474;45.332;10.230;2023-02-15T11:23:21;14.90;99.00
45765;DHT22;31474;45.332;10.230;2023-02-15T11:26:04;15.00;99.20
45765;DHT22;31474;45.332;10.230;2023-02-15T11:29:01;15.00;97.90
45765;DHT22;31474;45.332;10.230;2023-02-15T11:31:43;15.00;98.40
45765;DHT22;31474;45.332;10.230;2023-02-15T11:34:34;15.00;98.00
45765;DHT22;31474;45.332;10.230;2023-02-15T11:37:13;15.10;98.00
45765;DHT22;31474;45.332;10.230;2023-02-15T11:39:41;15.10;97.50
45765;DHT22;31474;45.332;10.230;2023-02-15T11:42:19;15.20;98.30
45765;DHT22;31474;45.332;10.230;2023-02-15T11:45:16;15.20;97.70
45765;DHT22;31474;45.332;10.230;2023-02-15T11:47:45;15.30;96.90
45765;DHT22;31474;45.332;10.230;2023-02-15T11:50:15;15.30;97.50
45765;DHT22;31474;45.332;10.230;2023-02-15T11:52:43;15.30;97.10
45765;DHT22;31474;45.332;10.230;2023-02-15T11:55:15;15.40;98.10
45765;DHT22;31474;45.332;10.230;2023-02-15T11:57:48;15.40;97.20
45765;DHT22;31474;45.332;10.230;2023-02-15T12:00:49;15.40;97.50
45765;DHT22;31474;45.332;10.230;2023-02-15T12:03:39;15.40;97.00
45765;DHT22;31474;45.332;10.230;2023-02-15T12:06:17;15.40;97.30
45765;DHT22;31474;45.332;10.230;2023-02-15T12:09:34;15.50;97.30
45765;DHT22;31474;45.332;10.230;2023-02-15T12:11:37;15.50;97.60
45765;DHT22;31474;45.332;10.230;2023-02-15T12:14:05;15.60;97.60
45765;DHT22;31474;45.332;10.230;2023-02-15T12:16:54;15.70;97.10
45765;DHT22;31474;45.332;10.230;2023-02-15T12:19:32;15.70;97.20
45765;DHT22;31474;45.332;10.230;2023-02-15T12:22:01;15.70;97.40
45765;DHT22;31474;45.332;10.230;2023-02-15T12:24:37;15.60;97.10
45765;DHT22;31474;45.332;10.230;2023-02-15T12:27:18;15.60;96.40
45765;DHT22;31474;45.332;10.230;2023-02-15T12:29:49;15.60;97.50
45765;DHT22;31474;45.332;10.230;2023-02-15T12:32:33;15.60;97.50
45765;DHT22;31474;45.332;10.230;2023-02-15T12:35:14;15.60;97.00
45765;DHT22;31474;45.332;10.230;2023-02-15T12:37:53;15.80;97.40
45765;DHT22;31474;45.332;10.230;2023-02-15T12:40:26;15.90;96.90
45765;DHT22;31474;45.332;10.230;2023-02-15T12:42:53;16.00;96.90
45765;DHT22;31474;45.332;10.230;2023-02-15T12:47:49;16.10;96.70
45765;DHT22;31474;45.332;10.230;2023-02-15T12:50:32;16.10;96.70
45765;DHT22;31474;45.332;10.230;2023-02-15T12:53:16;16.10;96.50
45765;DHT22;31474;45.332;10.230;2023-02-15T12:56:10;16.10;96.30
45765;DHT22;31474;45.332;10.230;2023-02-15T12:58:38;16.10;96.10
45765;DHT22;31474;45.332;10.230;2023-02-15T13:03:58;16.20;96.20
45765;DHT22;31474;45.332;10.230;2023-02-15T13:06:25;16.30;95.50
45765;DHT22;31474;45.332;10.230;2023-02-15T13:08:54;16.20;96.40
45765;DHT22;31474;45.332;10.230;2023-02-15T13:11:30;16.30;96.70
45765;DHT22;31474;45.332;10.230;2023-02-15T13:14:32;16.30;96.20
45765;DHT22;31474;45.332;10.230;2023-02-15T13:17:00;16.40;95.70
45765;DHT22;31474;45.332;10.230;2023-02-15T13:19:43;16.40;96.10
45765;DHT22;31474;45.332;10.230;2023-02-15T13:22:26;16.40;95.70
45765;DHT22;31474;45.332;10.230;2023-02-15T13:25:03;16.30;95.80
45765;DHT22;31474;45.332;10.230;2023-02-15T13:27:37;16.30;95.30
45765;DHT22;31474;45.332;10.230;2023-02-15T13:30:56;16.20;96.00
45765;DHT22;31474;45.332;10.230;2023-02-15T13:33:25;16.20;95.40
45765;DHT22;31474;45.332;10.230;2023-02-15T13:41:29;16.30;95.80
45765;DHT22;31474;45.332;10.230;2023-02-15T13:47:21;16.30;95.00
45765;DHT22;31474;45.332;10.230;2023-02-15T13:52:27;16.20;95.30
45765;DHT22;31474;45.332;10.230;2023-02-15T13:58:03;16.10;95.10
45765;DHT22;31474;45.332;10.230;2023-02-15T14:00:44;16.10;94.50
45765;DHT22;31474;45.332;10.230;2023-02-15T14:11:56;16.10;94.40
45765;DHT22;31474;45.332;10.230;2023-02-15T14:20:07;16.00;95.10
45765;DHT22;31474;45.332;10.230;2023-02-15T14:22:43;15.90;94.50
45765;DHT22;31474;45.332;10.230;2023-02-15T14:28:10;15.90;94.50
45765;DHT22;31474;45.332;10.230;2023-02-15T14:30:49;15.90;94.70
45765;DHT22;31474;45.332;10.230;2023-02-15T14:35:50;15.90;94.20
45765;DHT22;31474;45.332;10.230;2023-02-15T14:38:51;15.90;94.60
45765;DHT22;31474;45.332;10.230;2023-02-15T14:41:45;15.90;93.60
45765;DHT22;31474;45.332;10.230;2023-02-15T14:44:27;15.80;93.70
45765;DHT22;31474;45.332;10.230;2023-02-15T14:47:37;15.80;94.20
45765;DHT22;31474;45.332;10.230;2023-02-15T14:50:38;15.80;93.90
45765;DHT22;31474;45.332;10.230;2023-02-15T14:53:24;15.80;93.40
45765;DHT22;31474;45.332;10.230;2023-02-15T14:58:36;15.70;94.20
45765;DHT22;31474;45.332;10.230;2023-02-15T15:01:09;15.70;94.40
45765;DHT22;31474;45.332;10.230;2023-02-15T15:03:36;15.70;93.70
45765;DHT22;31474;45.332;10.230;2023-02-15T15:06:25;15.70;93.80
45765;DHT22;31474;45.332;10.230;2023-02-15T15:08:55;15.60;93.40
45765;DHT22;31474;45.332;10.230;2023-02-15T15:16:46;15.60;93.70
45765;DHT22;31474;45.332;10.230;2023-02-15T15:22:18;15.60;92.60
45765;DHT22;31474;45.332;10.230;2023-02-15T15:43:40;15.10;94.30
45765;DHT22;31474;45.332;10.230;2023-02-15T15:49:12;15.00;93.50
45765;DHT22;31474;45.332;10.230;2023-02-15T15:51:42;15.00;94.40
45765;DHT22;31474;45.332;10.230;2023-02-15T15:54:16;14.90;94.50
45765;DHT22;31474;45.332;10.230;2023-02-15T15:56:46;14.80;94.50
45765;DHT22;31474;45.332;10.230;2023-02-15T15:59:18;14.70;94.90
45765;DHT22;31474;45.332;10.230;2023-02-15T16:01:45;14.60;94.90
45765;DHT22;31474;45.332;10.230;2023-02-15T16:04:24;14.60;94.80
45765;DHT22;31474;45.332;10.230;2023-02-15T16:06:50;14.60;94.30
45765;DHT22;31474;45.332;10.230;2023-02-15T16:11:49;14.40;95.40
45765;DHT22;31474;45.332;10.230;2023-02-15T16:16:56;14.30;95.60
45765;DHT22;31474;45.332;10.230;2023-02-15T16:19:33;14.20;95.60
45765;DHT22;31474;45.332;10.230;2023-02-15T16:22:01;14.10;95.50
45765;DHT22;31474;45.332;10.230;2023-02-15T16:27:31;14.00;94.90
45765;DHT22;31474;45.332;10.230;2023-02-15T16:29:58;13.90;95.60
45765;DHT22;31474;45.332;10.230;2023-02-15T16:32:25;13.90;95.50
45765;DHT22;31474;45.332;10.230;2023-02-15T16:35:00;13.80;95.50
45765;DHT22;31474;45.332;10.230;2023-02-15T16:37:28;13.70;95.60
45765;DHT22;31474;45.332;10.230;2023-02-15T16:39:56;13.70;95.90
45765;DHT22;31474;45.332;10.230;2023-02-15T16:42:22;13.60;96.00
45765;DHT22;31474;45.332;10.230;2023-02-15T16:44:53;13.50;96.30
45765;DHT22;31474;45.332;10.230;2023-02-15T16:47:24;13.40;96.40
45765;DHT22;31474;45.332;10.230;2023-02-15T16:49:52;13.30;96.70
45765;DHT22;31474;45.332;10.230;2023-02-15T16:52:24;13.20;96.80
45765;DHT22;31474;45.332;10.230;2023-02-15T16:54:56;13.10;96.70
45765;DHT22;31474;45.332;10.230;2023-02-15T16:57:28;13.00;96.80
45765;DHT22;31474;45.332;10.230;2023-02-15T16:59:58;12.90;97.10
45765;DHT22;31474;45.332;10.230;2023-02-15T17:02:28;12.80;97.10
45765;DHT22;31474;45.332;10.230;2023-02-15T17:07:40;12.60;97.10
45765;DHT22;31474;45.332;10.230;2023-02-15T17:12:56;12.40;97.70
45765;DHT22;31474;45.332;10.230;2023-02-15T17:15:36;12.30;97.70
45765;DHT22;31474;45.332;10.230;2023-02-15T17:18:17;12.20;97.70
45765;DHT22;31474;45.332;10.230;2023-02-15T17:20:45;12.10;98.00
45765;DHT22;31474;45.332;10.230;2023-02-15T17:25:48;12.00;98.20
45765;DHT22;31474;45.332;10.230;2023-02-15T17:28:22;11.80;97.90
45765;DHT22;31474;45.332;10.230;2023-02-15T17:30:50;11.80;98.20
45765;DHT22;31474;45.332;10.230;2023-02-15T17:36:21;11.70;98.40
45765;DHT22;31474;45.332;10.230;2023-02-15T17:41:29;11.50;98.50
45765;DHT22;31474;45.332;10.230;2023-02-15T17:43:55;11.50;98.50
45765;DHT22;31474;45.332;10.230;2023-02-15T17:46:21;11.40;98.40
45765;DHT22;31474;45.332;10.230;2023-02-15T17:48:49;11.40;98.40
45765;DHT22;31474;45.332;10.230;2023-02-15T17:51:16;11.40;98.40
45765;DHT22;31474;45.332;10.230;2023-02-15T17:53:43;11.30;98.20
45765;DHT22;31474;45.332;10.230;2023-02-15T17:56:29;11.30;98.10
45765;DHT22;31474;45.332;10.230;2023-02-15T17:58:54;11.30;98.20
45765;DHT22;31474;45.332;10.230;2023-02-15T18:01:21;11.30;98.20
45765;DHT22;31474;45.332;10.230;2023-02-15T18:04:08;11.20;98.20
45765;DHT22;31474;45.332;10.230;2023-02-15T18:06:55;11.20;98.20
45765;DHT22;31474;45.332;10.230;2023-02-15T18:09:40;11.20;98.40
45765;DHT22;31474;45.332;10.230;2023-02-15T18:12:26;11.20;98.30
45765;DHT22;31474;45.332;10.230;2023-02-15T18:14:53;11.00;98.50
45765;DHT22;31474;45.332;10.230;2023-02-15T18:17:23;10.90;98.70
45765;DHT22;31474;45.332;10.230;2023-02-15T18:19:51;10.80;98.80
45765;DHT22;31474;45.332;10.230;2023-02-15T18:22:19;10.70;99.00
45765;DHT22;31474;45.332;10.230;2023-02-15T18:24:48;10.60;99.00
45765;DHT22;31474;45.332;10.230;2023-02-15T18:27:15;10.50;99.00
45765;DHT22;31474;45.332;10.230;2023-02-15T18:29:41;10.50;99.30
45765;DHT22;31474;45.332;10.230;2023-02-15T18:32:11;10.40;99.10
45765;DHT22;31474;45.332;10.230;2023-02-15T18:34:40;10.30;99.10
45765;DHT22;31474;45.332;10.230;2023-02-15T18:37:16;10.20;99.20
45765;DHT22;31474;45.332;10.230;2023-02-15T18:39:45;10.20;99.30
45765;DHT22;31474;45.332;10.230;2023-02-15T18:42:20;10.10;99.50
45765;DHT22;31474;45.332;10.230;2023-02-15T18:44:48;10.00;99.50
45765;DHT22;31474;45.332;10.230;2023-02-15T18:47:13;10.00;99.80
45765;DHT22;31474;45.332;10.230;2023-02-15T18:49:39;9.90;99.50
45765;DHT22;31474;45.332;10.230;2023-02-15T18:52:05;9.90;99.60